Autryville, NC

10:13 AM EDT on July 30, 2014 (GMT -0400)
Big Creek (KNCSTEDM1) Elev 98 ft | 35.04 °N, 78.67 °W | Change Station

Current weather conditions updated 10 seconds ago

Mostly Cloudy
Mostly Cloudy
78.6 °F
Feels Like 81 °F
N
1.0
Wind Variable Wind from ENE
Gusts 4.0 mph

Today is forecast to be nearly the same temperature as yesterday.

Today
High -- | Low -- °F
--% Chance of Precip.
Yesterday
High -- | Low -- °F
Precip. -- in
6:22 AM 8:18 PM
Waxing Crescent, 12% visible
Pressure 30.04 in
Visibility 10.0 miles
Clouds Mostly Cloudy 2300 ft
Heat Index 81 °F
Dew Point 71 °F
Humidity 78%
Rainfall 0.00 in
Snow Depth Not available.
UV 3 out of 12
Pollen 3.90 out of 12
Ozone Good
PM2.5 Good
Flu Activity Not available.
METAR KFAY 301353Z AUTO VRB06KT 10SM BKN023 25/19 A3005 RMK AO2 SLP170 T02500189

More Conditions Fewer Conditions

Pressure 30.04 in
Visibility 10.0 miles
Clouds Mostly Cloudy 2300 ft
Heat Index 81 °F
Dew Point 71 °F
Humidity 78%
Rainfall 0.00 in
Snow Depth Not available.
UV 3 out of 12
Pollen 3.90 out of 12
Ozone Good
PM2.5 Good
Flu Activity Not available.
METAR KFAY 301353Z AUTO VRB06KT 10SM BKN023 25/19 A3005 RMK AO2 SLP170 T02500189

More Conditions Fewer Conditions

10-Day Weather Forecast

Almanac

Astronomy

Jul. 30, 2014 Rise Set
Actual Time 6:22 AM EDT 8:18 PM EDT
Civil Twilight 5:54 AM EDT 8:46 PM EDT
Nautical Twilight 5:20 AM EDT 9:20 PM EDT
Astronomical Twilight 4:44 AM EDT 9:56 PM EDT
Moon 9:42 AM EDT 10:11 PM EDT
Length of Visible Light 14h 52m
Length of Day
13h 56m
Tomorrow will be 1m 35s shorter.
Waxing Crescent, 12% of the Moon is Illuminated
Today
Waxing Crescent
Aug 3
First Quarter
Aug 10
Full
Aug 17
Last Quarter
Aug 25
New

Today's Extremes

State Highs State Lows

Community

WunderPhotos

Upload Photos

1,739,086 photos uploaded!

Nearby

Air Quality

  Air Quality AQ Index Pollutant
Yesterday Good
OZONE
Yesterday Good
PM2.5
Current Good
PM2.5
Current Good
OZONE
Wednesday Good
OZONE
Wednesday Good
PM2.5
Thursday Good
PM2.5
Thursday Good
OZONE
Friday Good
PM2.5
Friday Good
OZONE

Snow Depth

Station Depth Elevation
No new snow has been reported.

Earthquake Activity

City Distance Mag. Time & Date
No recent earthquake activity has been reported nearby.
Minimum magnitude displayed is 2.5.

Coastal Water Temperatures

Place Temperature
No Stations Reporting

Nearby Weather Stations

Station Location Temp. Heat Index Dew Point Humidity Wind Precip. Elev Updated Type
Big Creek, Stedman, NC 78.6 °F 81 °F 71 °F 78% ENE  at  1.0 mph 0.00 in / hr 98 ft 10:13 AM EDT Rapid Fire
Mounted on a pole in our back yard. Clea, Fayetteville, NC 81.9 °F 85 °F 68 °F 62% NE  at  0.0 mph 0.00 in / hr 177 ft 10:13 AM EDT Rapid Fire
Hope Mills Lake, Hope Mills, NC 78.9 °F 81 °F 68 °F 69% SE  at  1.0 mph 0.00 in / hr 152 ft 10:11 AM EDT Normal
Wallace Pond, Fayetteville, NC 79.0 °F 82 °F 70 °F 73% SSE  at  3.1 mph 0.00 in / hr 187 ft 10:09 AM EDT Normal

Show More Stations Show Fewer Stations